createdAt,value
2023-04-28T00:00:30.826Z,0.77
2023-04-28T00:02:59.019Z,2.37
2023-04-28T00:05:28.400Z,0.50
2023-04-28T00:07:56.389Z,2.53
2023-04-28T00:10:24.260Z,1.70
2023-04-28T00:12:52.187Z,0.60
2023-04-28T00:15:20.175Z,0.40
2023-04-28T00:17:48.104Z,1.43
2023-04-28T00:20:16.009Z,2.93
2023-04-28T00:22:45.276Z,2.07
2023-04-28T00:25:13.135Z,1.33
2023-04-28T00:27:40.990Z,0.80
2023-04-28T00:30:10.194Z,2.63
2023-04-28T00:32:38.221Z,0.60
2023-04-28T00:35:07.068Z,1.23
2023-04-28T00:37:37.543Z,1.70
2023-04-28T00:40:08.362Z,0.83
2023-04-28T00:42:36.288Z,1.23
2023-04-28T00:45:06.578Z,2.97
2023-04-28T00:47:34.759Z,0.83
2023-04-28T00:50:02.717Z,0.87
2023-04-28T00:52:30.733Z,2.73
2023-04-28T00:54:58.691Z,3.13
2023-04-28T00:57:28.018Z,0.40
2023-04-28T00:59:56.068Z,0.60
2023-04-28T01:02:24.042Z,1.80
2023-04-28T01:04:52.690Z,0.97
2023-04-28T01:07:21.129Z,1.47
2023-04-28T01:09:49.204Z,2.03
2023-04-28T01:12:17.089Z,1.37
2023-04-28T01:14:46.355Z,1.03
2023-04-28T01:17:14.233Z,4.27
2023-04-28T01:19:42.118Z,3.40
2023-04-28T01:22:10.820Z,2.80
2023-04-28T01:24:40.207Z,0.40
2023-04-28T01:27:08.062Z,0.43
2023-04-28T01:29:35.986Z,1.73
2023-04-28T01:32:03.887Z,0.50
2023-04-28T01:34:31.831Z,2.13
2023-04-28T01:36:59.672Z,0.93
2023-04-28T01:39:27.548Z,0.83
2023-04-28T01:41:56.809Z,3.10
2023-04-28T01:44:24.681Z,1.60
2023-04-28T01:46:52.534Z,1.13
2023-04-28T01:49:20.378Z,4.10
2023-04-28T01:51:48.239Z,0.80
2023-04-28T01:54:16.518Z,2.30
2023-04-28T01:56:44.669Z,2.00
2023-04-28T01:59:14.197Z,1.30
2023-04-28T02:01:42.078Z,1.13
2023-04-28T02:04:10.063Z,3.70
2023-04-28T02:06:38.032Z,0.30
2023-04-28T02:09:05.865Z,2.53
2023-04-28T02:11:33.750Z,3.20
2023-04-28T02:14:01.657Z,1.50
2023-04-28T02:16:30.924Z,2.80
2023-04-28T02:18:58.868Z,2.43
2023-04-28T02:21:27.922Z,0.93
2023-04-28T02:23:56.066Z,0.73
2023-04-28T02:26:24.427Z,6.27
2023-04-28T02:28:52.301Z,2.87
2023-04-28T02:31:20.240Z,1.80
2023-04-28T02:33:49.539Z,5.07
2023-04-28T02:36:17.673Z,3.63
2023-04-28T02:38:45.555Z,1.30
2023-04-28T02:41:15.032Z,2.60
2023-04-28T02:43:42.915Z,3.97
2023-04-28T02:46:11.321Z,3.03
2023-04-28T02:48:39.284Z,2.97
2023-04-28T02:51:08.541Z,2.57
2023-04-28T02:53:36.380Z,4.27
2023-04-28T02:56:04.714Z,1.47
2023-04-28T02:58:32.551Z,4.00
2023-04-28T03:01:00.585Z,1.10
2023-04-28T03:03:28.726Z,0.73
2023-04-28T03:05:56.968Z,0.57
2023-04-28T03:08:26.777Z,1.03
2023-04-28T03:10:54.728Z,1.47
2023-04-28T03:13:22.659Z,0.83
2023-04-28T03:15:51.222Z,0.67
2023-04-28T03:18:19.245Z,0.40
2023-04-28T03:20:47.123Z,4.07
2023-04-28T03:23:14.996Z,1.10
2023-04-28T03:25:44.295Z,0.70
2023-04-28T03:28:12.125Z,1.40
2023-04-28T03:30:39.974Z,2.40
2023-04-28T03:33:07.954Z,3.50
2023-04-28T03:35:35.881Z,0.67
2023-04-28T03:38:03.801Z,0.50
2023-04-28T03:40:31.724Z,3.40
2023-04-28T03:43:03.928Z,2.20
2023-04-28T03:45:32.618Z,2.73
2023-04-28T03:48:00.546Z,2.23
2023-04-28T03:50:28.470Z,1.27
2023-04-28T03:52:56.407Z,3.50
2023-04-28T03:55:24.305Z,5.10
2023-04-28T03:57:52.140Z,7.87
2023-04-28T04:00:21.553Z,9.43
2023-04-28T04:02:49.704Z,8.67
2023-04-28T04:05:18.094Z,10.60
2023-04-28T04:07:46.088Z,12.03
2023-04-28T04:10:13.993Z,20.27
2023-04-28T04:12:41.840Z,15.50
2023-04-28T04:15:10.806Z,11.07
2023-04-28T04:17:40.083Z,9.37
2023-04-28T04:20:09.391Z,7.33
2023-04-28T04:22:37.438Z,7.07
2023-04-28T04:25:06.051Z,10.47
2023-04-28T04:27:33.891Z,5.23
2023-04-28T04:30:02.216Z,6.53
2023-04-28T04:32:30.144Z,10.80
2023-04-28T04:34:59.397Z,7.13
2023-04-28T04:37:27.483Z,11.50
2023-04-28T04:39:55.346Z,13.90
2023-04-28T04:42:25.809Z,5.93
2023-04-28T04:44:53.986Z,6.13
2023-04-28T04:47:21.824Z,9.03
2023-04-28T04:49:49.999Z,8.90
2023-04-28T04:52:19.515Z,11.70
2023-04-28T04:54:47.456Z,7.60
2023-04-28T04:57:15.365Z,12.67
2023-04-28T04:59:43.213Z,6.93
2023-04-28T05:02:11.338Z,7.30
2023-04-28T05:04:39.583Z,7.17
2023-04-28T05:07:07.488Z,8.33
2023-04-28T05:09:36.747Z,7.07
2023-04-28T05:12:04.933Z,10.33
2023-04-28T05:14:32.815Z,7.43
2023-04-28T05:17:00.777Z,11.63
2023-04-28T05:19:28.649Z,11.37
2023-04-28T05:21:56.622Z,8.50
2023-04-28T05:24:24.685Z,10.70
2023-04-28T05:26:54.436Z,9.47
2023-04-28T05:29:22.565Z,9.03
2023-04-28T05:31:50.501Z,7.13
2023-04-28T05:34:18.530Z,10.57
2023-04-28T05:36:46.596Z,7.87
2023-04-28T05:39:14.450Z,14.13
2023-04-28T05:41:42.390Z,14.27
2023-04-28T05:44:11.866Z,17.83
2023-04-28T05:46:39.975Z,10.73
2023-04-28T05:49:07.895Z,11.53
2023-04-28T05:51:35.997Z,12.70
2023-04-28T05:54:03.890Z,13.97
2023-04-28T05:56:31.791Z,16.60
2023-04-28T05:59:02.151Z,18.10
2023-04-28T06:01:31.441Z,16.93
2023-04-28T06:03:59.849Z,16.33
2023-04-28T06:06:28.431Z,21.57
2023-04-28T06:08:56.275Z,23.47
2023-04-28T06:11:24.163Z,22.73
2023-04-28T06:13:52.238Z,16.57
2023-04-28T06:16:20.654Z,20.43
2023-04-28T06:18:50.066Z,16.67
2023-04-28T06:21:18.103Z,26.60
2023-04-28T06:23:46.092Z,26.80
2023-04-28T06:26:14.470Z,33.07
2023-04-28T06:28:43.678Z,21.77
2023-04-28T06:31:11.602Z,21.20
2023-04-28T06:33:39.489Z,18.93
2023-04-28T06:36:09.322Z,20.90
2023-04-28T06:38:37.566Z,22.83
2023-04-28T06:41:05.633Z,23.60
2023-04-28T06:43:33.592Z,23.63
2023-04-28T06:46:01.576Z,25.03
2023-04-28T06:48:29.442Z,26.37
2023-04-28T06:50:57.330Z,17.97
2023-04-28T06:53:27.228Z,19.63
2023-04-28T06:55:55.093Z,18.93
2023-04-28T06:58:22.970Z,20.60
2023-04-28T07:00:50.943Z,22.20
2023-04-28T07:03:18.961Z,26.53
2023-04-28T07:05:46.921Z,26.90
2023-04-28T07:08:14.979Z,19.47
2023-04-28T07:10:44.593Z,31.17
2023-04-28T07:13:12.645Z,18.00
2023-04-28T07:15:40.680Z,23.20
2023-04-28T07:18:08.590Z,29.80
2023-04-28T07:20:36.542Z,25.37
2023-04-28T07:23:04.448Z,25.10
2023-04-28T07:25:32.632Z,21.03
2023-04-28T07:28:04.322Z,23.00
2023-04-28T07:30:32.221Z,24.00
2023-04-28T07:33:00.134Z,19.73
2023-04-28T07:35:28.218Z,17.97
2023-04-28T07:37:56.201Z,22.80
2023-04-28T07:40:24.246Z,21.73
2023-04-28T07:42:52.570Z,23.43
2023-04-28T07:45:22.034Z,25.77
2023-04-28T07:47:49.973Z,24.43
2023-04-28T07:50:18.165Z,21.70
2023-04-28T07:52:46.278Z,24.83
2023-04-28T07:55:14.260Z,21.90
2023-04-28T07:57:42.471Z,22.77
2023-04-28T08:00:12.120Z,21.90
2023-04-28T08:02:41.601Z,24.67
2023-04-28T08:05:10.759Z,23.57
2023-04-28T08:07:38.893Z,20.00
2023-04-28T08:10:07.828Z,23.57
2023-04-28T08:12:35.793Z,21.87
2023-04-28T08:15:04.026Z,26.20
2023-04-28T08:17:32.158Z,25.97
2023-04-28T08:20:01.431Z,22.10
2023-04-28T08:22:29.328Z,21.63
2023-04-28T08:24:57.188Z,17.30
2023-04-28T08:27:25.839Z,23.17
2023-04-28T08:29:53.879Z,21.83
2023-04-28T08:32:21.876Z,18.37
2023-04-28T08:34:50.113Z,20.50
2023-04-28T08:37:23.458Z,19.03
2023-04-28T08:39:52.763Z,21.33
2023-04-28T08:42:20.794Z,19.80
2023-04-28T08:44:49.237Z,16.43
2023-04-28T08:47:20.135Z,16.00
2023-04-28T08:49:51.006Z,15.00
2023-04-28T08:52:19.221Z,18.07
2023-04-28T08:54:51.505Z,20.50
2023-04-28T08:57:22.423Z,16.20
2023-04-28T09:00:10.593Z,19.33
2023-04-28T09:02:42.644Z,14.43
2023-04-28T09:05:13.134Z,18.57
2023-04-28T09:07:57.309Z,19.47
2023-04-28T09:10:30.348Z,14.90
2023-04-28T09:12:58.835Z,19.27
2023-04-28T09:15:27.872Z,18.43
2023-04-28T09:17:55.947Z,16.77
2023-04-28T09:20:24.556Z,13.40
2023-04-28T09:23:02.219Z,17.10
2023-04-28T09:25:33.079Z,19.23
2023-04-28T09:28:01.237Z,17.27
2023-04-28T09:30:40.114Z,15.03
2023-04-28T09:33:18.523Z,14.57
2023-04-28T09:35:52.917Z,15.53
2023-04-28T09:38:21.379Z,17.33
2023-04-28T09:40:56.164Z,14.83
2023-04-28T09:43:34.179Z,15.57
2023-04-28T09:46:05.784Z,14.87
2023-04-28T09:48:36.764Z,17.33
2023-04-28T09:51:06.163Z,19.13
2023-04-28T09:53:35.517Z,16.80
2023-04-28T09:56:06.515Z,15.93
2023-04-28T09:58:35.564Z,12.63
2023-04-28T10:01:03.688Z,13.60
2023-04-28T10:03:33.666Z,12.87
2023-04-28T10:06:01.961Z,14.73
2023-04-28T10:08:29.868Z,15.90
2023-04-28T10:11:03.680Z,9.57
2023-04-28T10:13:33.009Z,7.20
2023-04-28T10:16:00.874Z,7.43
2023-04-28T10:18:28.769Z,7.77
2023-04-28T10:20:58.790Z,8.40
2023-04-28T10:23:47.033Z,9.97
2023-04-28T10:26:15.618Z,6.30
2023-04-28T10:28:48.566Z,7.47
2023-04-28T10:31:17.623Z,3.57
2023-04-28T10:33:45.777Z,7.17
2023-04-28T10:36:38.549Z,5.80
2023-04-28T10:39:10.726Z,7.23
2023-04-28T10:41:38.715Z,3.13
2023-04-28T10:44:44.131Z,5.77
2023-04-28T10:47:13.229Z,5.57
2023-04-28T10:50:09.454Z,2.60
2023-04-28T10:52:52.416Z,2.93
2023-04-28T10:55:36.312Z,3.70
2023-04-28T10:58:32.538Z,4.67
2023-04-28T11:01:29.836Z,6.77
2023-04-28T11:04:04.984Z,3.57
2023-04-28T11:06:34.753Z,13.13
2023-04-28T11:09:03.394Z,6.03
2023-04-28T11:11:32.652Z,3.43
2023-04-28T11:14:33.821Z,3.80
2023-04-28T11:17:04.230Z,3.80
2023-04-28T11:19:33.149Z,4.83
2023-04-28T11:22:02.114Z,4.13
2023-04-28T11:24:30.625Z,6.67
2023-04-28T11:26:58.713Z,5.90
2023-04-28T11:29:33.395Z,6.20
2023-04-28T11:32:02.986Z,2.87
2023-04-28T11:34:30.907Z,7.30
2023-04-28T11:36:58.824Z,4.43
2023-04-28T11:39:28.537Z,4.47
2023-04-28T11:41:56.429Z,4.37
2023-04-28T11:44:25.081Z,5.70
2023-04-28T11:46:56.001Z,3.73
2023-04-28T11:49:25.614Z,4.30
2023-04-28T11:51:53.661Z,3.33
2023-04-28T11:54:22.174Z,7.87
2023-04-28T11:56:50.120Z,4.60
2023-04-28T11:59:18.224Z,4.20
2023-04-28T12:01:47.796Z,4.17
2023-04-28T12:04:16.151Z,5.90
2023-04-28T12:06:45.558Z,4.00
2023-04-28T12:09:17.220Z,7.37
2023-04-28T12:11:57.909Z,5.53
2023-04-28T12:14:26.435Z,5.10
2023-04-28T12:16:54.304Z,4.97
2023-04-28T12:19:22.181Z,5.67
2023-04-28T12:22:07.579Z,7.50
2023-04-28T12:24:36.310Z,6.20
2023-04-28T12:27:21.758Z,8.83
2023-04-28T12:29:49.794Z,9.70
2023-04-28T12:32:17.864Z,6.03
2023-04-28T12:34:46.415Z,5.67
2023-04-28T12:37:15.978Z,13.77
2023-04-28T12:39:44.213Z,9.13
2023-04-28T12:42:12.303Z,3.57
2023-04-28T12:44:40.924Z,6.17
2023-04-28T12:47:10.789Z,6.13
2023-04-28T12:49:38.798Z,3.20
2023-04-28T12:52:06.950Z,4.30
2023-04-28T12:54:36.819Z,3.40
2023-04-28T12:57:05.404Z,3.87
2023-04-28T12:59:33.579Z,3.90
2023-04-28T13:02:01.499Z,3.03
2023-04-28T13:04:30.046Z,4.90
2023-04-28T13:06:58.552Z,4.27
2023-04-28T13:09:26.485Z,11.10
2023-04-28T13:11:55.740Z,4.50
2023-04-28T13:14:24.104Z,5.77
2023-04-28T13:16:52.536Z,3.50
2023-04-28T13:19:20.448Z,7.77
2023-04-28T13:21:48.396Z,4.03
2023-04-28T13:24:16.338Z,6.47
2023-04-28T13:26:45.340Z,4.27
2023-04-28T13:29:14.830Z,4.23
2023-04-28T13:31:43.127Z,7.13
2023-04-28T13:34:16.068Z,3.97
2023-04-28T13:36:44.490Z,5.43
2023-04-28T13:39:14.833Z,3.73
2023-04-28T13:41:43.258Z,2.93
2023-04-28T13:44:11.382Z,3.27
2023-04-28T13:46:40.671Z,3.93
2023-04-28T13:49:08.594Z,2.80
2023-04-28T13:51:36.479Z,3.27
2023-04-28T13:54:05.440Z,3.33
2023-04-28T13:56:33.441Z,4.37
2023-04-28T13:59:01.426Z,3.00
2023-04-28T14:01:29.508Z,3.33
2023-04-28T14:03:59.104Z,2.70
2023-04-28T14:06:27.903Z,2.97
2023-04-28T14:08:55.889Z,5.23
2023-04-28T14:11:23.830Z,2.80
2023-04-28T14:13:52.289Z,3.07
2023-04-28T14:16:20.401Z,3.87
2023-04-28T14:18:48.350Z,3.43
2023-04-28T14:21:17.661Z,3.77
2023-04-28T14:23:45.605Z,3.53
2023-04-28T14:26:13.499Z,4.57
2023-04-28T14:28:42.277Z,2.33
2023-04-28T14:31:10.601Z,2.37
2023-04-28T14:33:38.527Z,2.83
2023-04-28T14:36:06.497Z,2.57
2023-04-28T14:38:36.685Z,2.80
2023-04-28T14:41:06.228Z,3.60
2023-04-28T14:43:34.116Z,2.53
2023-04-28T14:46:02.160Z,2.30
2023-04-28T14:48:30.139Z,3.10
2023-04-28T14:50:58.685Z,3.70
2023-04-28T14:53:26.653Z,2.53
2023-04-28T14:56:02.059Z,4.10
2023-04-28T14:58:39.000Z,2.67
2023-04-28T15:01:07.423Z,2.53
2023-04-28T15:03:35.921Z,3.20
2023-04-28T15:06:05.161Z,1.93
2023-04-28T15:08:33.287Z,2.10
2023-04-28T15:11:02.576Z,2.23
2023-04-28T15:13:30.553Z,2.70
2023-04-28T15:15:58.488Z,3.33
2023-04-28T15:18:26.386Z,2.53
2023-04-28T15:20:54.306Z,2.30
2023-04-28T15:23:22.255Z,3.43
2023-04-28T15:25:53.489Z,5.00
2023-04-28T15:28:23.657Z,2.50
2023-04-28T15:30:51.524Z,2.57
2023-04-28T15:33:19.644Z,3.50
2023-04-28T15:35:47.666Z,2.80
2023-04-28T15:38:16.259Z,2.47
2023-04-28T15:40:44.484Z,4.17
2023-04-28T15:43:13.373Z,2.20
2023-04-28T15:45:42.679Z,1.90
2023-04-28T15:48:12.176Z,4.35
2023-04-28T15:50:40.185Z,3.80
2023-04-28T15:53:08.106Z,2.10
2023-04-28T15:55:36.098Z,2.40
2023-04-28T15:58:04.223Z,2.42
2023-04-28T16:00:32.495Z,4.03
2023-04-28T16:03:02.213Z,4.00
2023-04-28T16:05:30.298Z,3.90
2023-04-28T16:07:58.190Z,4.30
2023-04-28T16:10:26.532Z,5.37
2023-04-28T16:12:54.432Z,6.27
2023-04-28T16:15:22.919Z,8.90
2023-04-28T16:17:51.996Z,3.93
2023-04-28T16:20:21.616Z,3.17
2023-04-28T16:22:49.541Z,6.43
2023-04-28T16:25:17.497Z,2.63
2023-04-28T16:27:45.378Z,3.63
2023-04-28T16:30:13.423Z,5.13
2023-04-28T16:32:41.702Z,4.53
2023-04-28T16:35:15.150Z,5.07
2023-04-28T16:37:44.741Z,8.90
2023-04-28T16:40:13.451Z,3.57
2023-04-28T16:42:42.134Z,5.80
2023-04-28T16:45:11.516Z,4.40
2023-04-28T16:47:42.464Z,3.00
2023-04-28T16:50:11.777Z,3.30
2023-04-28T16:52:39.793Z,3.30
2023-04-28T16:55:10.496Z,3.50
2023-04-28T16:57:38.423Z,2.80
2023-04-28T17:00:07.721Z,3.03
2023-04-28T17:02:35.981Z,3.47
2023-04-28T17:05:04.214Z,4.90
2023-04-28T17:07:32.109Z,5.27
2023-04-28T17:10:00.268Z,2.77
2023-04-28T17:12:29.606Z,5.20
2023-04-28T17:14:57.499Z,4.33
2023-04-28T17:17:25.942Z,3.10
2023-04-28T17:19:53.975Z,3.57
2023-04-28T17:22:22.252Z,4.30
2023-04-28T17:24:50.251Z,6.40
2023-04-28T17:27:18.118Z,5.03
2023-04-28T17:29:47.609Z,5.87
2023-04-28T17:32:15.753Z,7.37
2023-04-28T17:34:43.631Z,4.70
2023-04-28T17:37:11.543Z,2.60
2023-04-28T17:39:39.459Z,5.07
2023-04-28T17:42:07.446Z,6.73
2023-04-28T17:44:35.672Z,4.43
2023-04-28T17:47:05.001Z,2.77
2023-04-28T17:49:32.925Z,4.90
2023-04-28T17:52:00.890Z,4.63
2023-04-28T17:54:28.814Z,3.10
2023-04-28T17:56:57.219Z,3.33
2023-04-28T17:59:25.090Z,8.93
2023-04-28T18:01:56.139Z,7.73
2023-04-28T18:04:25.802Z,4.50
2023-04-28T18:06:53.684Z,5.37
2023-04-28T18:09:21.574Z,5.53
2023-04-28T18:11:49.440Z,3.47
2023-04-28T18:14:18.490Z,4.03
2023-04-28T18:16:46.642Z,2.43
2023-04-28T18:19:14.648Z,5.80
2023-04-28T18:21:43.888Z,3.00
2023-04-28T18:24:11.795Z,5.43
2023-04-28T18:26:39.709Z,2.37
2023-04-28T18:29:07.570Z,4.90
2023-04-28T18:31:35.457Z,2.33
2023-04-28T18:34:03.953Z,6.30
2023-04-28T18:36:33.091Z,3.03
2023-04-28T18:39:03.514Z,2.40
2023-04-28T18:41:32.334Z,3.07
2023-04-28T18:44:01.325Z,3.77
2023-04-28T18:46:29.531Z,4.53
2023-04-28T18:48:57.618Z,2.93
2023-04-28T18:51:25.584Z,4.73
2023-04-28T18:53:53.473Z,2.73
2023-04-28T18:56:23.728Z,4.93
2023-04-28T18:58:51.812Z,2.27
2023-04-28T19:01:19.961Z,3.80
2023-04-28T19:03:47.998Z,4.50
2023-04-28T19:06:17.494Z,5.23
2023-04-28T19:08:45.400Z,4.20
2023-04-28T19:11:13.245Z,6.70
2023-04-28T19:13:44.605Z,5.87
2023-04-28T19:16:12.710Z,3.20
2023-04-28T19:18:42.023Z,4.93
2023-04-28T19:21:12.143Z,6.53
2023-04-28T19:23:40.865Z,3.90
2023-04-28T19:26:09.086Z,4.10
2023-04-28T19:28:37.039Z,11.10
2023-04-28T19:31:06.388Z,6.33
2023-04-28T19:33:34.283Z,7.63
2023-04-28T19:36:05.282Z,5.97
2023-04-28T19:38:34.542Z,4.10
2023-04-28T19:41:02.545Z,8.43
2023-04-28T19:43:30.726Z,5.93
2023-04-28T19:45:58.712Z,5.20
2023-04-28T19:48:27.977Z,4.83
2023-04-28T19:50:56.420Z,4.93
2023-04-28T19:53:24.300Z,6.20
2023-04-28T19:55:52.226Z,5.60
2023-04-28T19:58:20.811Z,5.53
2023-04-28T20:00:48.940Z,6.57
2023-04-28T20:03:17.359Z,4.40
2023-04-28T20:05:47.109Z,5.47
2023-04-28T20:08:14.986Z,5.87
2023-04-28T20:10:43.011Z,7.33
2023-04-28T20:13:10.891Z,4.93
2023-04-28T20:15:39.146Z,6.43
2023-04-28T20:18:07.100Z,6.07
2023-04-28T20:20:35.027Z,9.37
2023-04-28T20:23:04.328Z,7.33
2023-04-28T20:25:32.197Z,5.90
2023-04-28T20:28:00.156Z,9.27
2023-04-28T20:30:28.400Z,6.73
2023-04-28T20:32:56.375Z,8.13
2023-04-28T20:35:24.551Z,8.73
2023-04-28T20:37:52.780Z,5.77
2023-04-28T20:40:22.835Z,5.30
2023-04-28T20:42:50.862Z,4.20
2023-04-28T20:45:19.427Z,4.40
2023-04-28T20:47:47.470Z,4.83
2023-04-28T20:50:15.655Z,6.10
2023-04-28T20:52:43.504Z,7.93
2023-04-28T20:55:11.547Z,4.43
2023-04-28T20:57:40.816Z,6.90
2023-04-28T21:00:10.674Z,5.00
2023-04-28T21:02:38.764Z,4.40
2023-04-28T21:05:07.318Z,4.50
2023-04-28T21:07:35.224Z,8.47
2023-04-28T21:10:03.101Z,6.77
2023-04-28T21:12:30.970Z,7.37
2023-04-28T21:15:00.885Z,4.83
2023-04-28T21:17:28.783Z,4.40
2023-04-28T21:19:57.406Z,5.30
2023-04-28T21:22:26.222Z,4.37
2023-04-28T21:24:54.558Z,5.57
2023-04-28T21:27:22.434Z,6.27
2023-04-28T21:29:50.622Z,6.03
2023-04-28T21:32:20.318Z,7.43
2023-04-28T21:34:49.634Z,4.73
2023-04-28T21:37:17.757Z,7.13
2023-04-28T21:39:45.643Z,3.57
2023-04-28T21:42:13.526Z,5.47
2023-04-28T21:44:41.871Z,4.10
2023-04-28T21:47:09.817Z,5.33
2023-04-28T21:49:39.139Z,4.80
2023-04-28T21:52:07.470Z,4.43
2023-04-28T21:54:35.800Z,4.27
2023-04-28T21:57:03.740Z,3.70
2023-04-28T21:59:31.615Z,3.70
2023-04-28T22:01:59.625Z,4.63
2023-04-28T22:04:27.839Z,4.17
2023-04-28T22:06:57.276Z,4.67
2023-04-28T22:09:25.131Z,4.87
2023-04-28T22:11:53.110Z,5.23
2023-04-28T22:14:35.623Z,5.47
2023-04-28T22:17:08.069Z,9.80
2023-04-28T22:19:36.037Z,8.90
2023-04-28T22:22:05.476Z,7.27
2023-04-28T22:24:33.460Z,10.40
2023-04-28T22:27:01.292Z,7.13
2023-04-28T22:29:29.761Z,8.17
2023-04-28T22:31:58.700Z,6.30
2023-04-28T22:34:26.658Z,7.23
2023-04-28T22:36:54.514Z,6.60
2023-04-28T22:39:25.135Z,11.57
2023-04-28T22:41:53.154Z,5.90
2023-04-28T22:44:21.160Z,8.33
2023-04-28T22:46:49.152Z,7.07
2023-04-28T22:49:17.142Z,6.40
2023-04-28T22:51:45.007Z,8.67
2023-04-28T22:54:13.746Z,8.57
2023-04-28T22:56:43.014Z,5.27
2023-04-28T22:59:10.827Z,5.37
2023-04-28T23:01:40.040Z,5.47
2023-04-28T23:04:08.249Z,6.63
2023-04-28T23:06:36.267Z,6.83
2023-04-28T23:09:04.731Z,5.53
2023-04-28T23:11:32.589Z,6.37
2023-04-28T23:14:02.026Z,4.40
2023-04-28T23:16:29.988Z,7.27
2023-04-28T23:18:57.923Z,5.07
2023-04-28T23:21:26.352Z,9.00
2023-04-28T23:23:54.214Z,9.47
2023-04-28T23:26:22.104Z,24.97
2023-04-28T23:28:49.992Z,8.53
2023-04-28T23:31:19.410Z,7.93
2023-04-28T23:33:47.284Z,12.50
2023-04-28T23:36:15.185Z,9.27
2023-04-28T23:38:43.044Z,6.97
2023-04-28T23:41:10.993Z,7.47
2023-04-28T23:43:38.929Z,5.30
2023-04-28T23:46:06.997Z,5.20
2023-04-28T23:48:36.558Z,5.37
2023-04-28T23:51:04.409Z,5.07
2023-04-28T23:53:32.248Z,5.20
2023-04-28T23:56:00.124Z,5.07
2023-04-28T23:58:27.976Z,4.63
